createdAt,value
2023-02-28T00:00:37.814Z,15.468792
2023-02-28T00:05:39.487Z,15.816308
2023-02-28T00:10:40.921Z,16.290672
2023-02-28T00:15:42.408Z,15.898322
2023-02-28T00:20:43.885Z,15.94431
2023-02-28T00:25:45.449Z,15.78868
2023-02-28T00:30:47.185Z,15.049344
2023-02-28T00:35:48.680Z,15.368432
2023-02-28T00:40:50.320Z,14.954452
2023-02-28T00:45:51.907Z,15.206466
2023-02-28T00:50:53.482Z,14.856046
2023-02-28T00:55:55.049Z,15.534998
2023-02-28T01:00:56.509Z,15.01713
2023-02-28T01:05:58.048Z,14.806612
2023-02-28T01:10:59.568Z,14.71305
2023-02-28T01:16:01.205Z,14.951806
2023-02-28T01:21:02.718Z,14.480116
2023-02-28T01:26:04.177Z,14.785864
2023-02-28T01:31:06.043Z,14.997888
2023-02-28T01:36:07.682Z,15.489988
2023-02-28T01:41:09.411Z,15.908554
2023-02-28T01:46:10.930Z,16.58117
2023-02-28T01:51:12.539Z,16.300388
2023-02-28T01:56:14.379Z,15.421488
2023-02-28T02:01:15.966Z,16.235146
2023-02-28T02:06:17.574Z,16.449558
2023-02-28T02:11:19.216Z,16.601036
2023-02-28T02:16:20.868Z,15.56766
2023-02-28T02:21:22.474Z,16.476576
2023-02-28T02:26:23.987Z,16.558128
2023-02-28T02:31:25.574Z,15.963632
2023-02-28T02:36:27.260Z,16.983154
2023-02-28T02:41:29.013Z,16.75851
2023-02-28T02:46:30.772Z,16.623628
2023-02-28T02:51:32.408Z,16.811024
2023-02-28T02:56:33.976Z,17.095266
2023-02-28T03:01:35.525Z,16.700432
2023-02-28T03:06:37.029Z,17.131632
2023-02-28T03:11:38.532Z,16.9046
2023-02-28T03:16:40.042Z,16.791348
2023-02-28T03:21:41.654Z,16.656996
2023-02-28T03:26:43.250Z,16.920218
2023-02-28T03:31:44.922Z,15.990296
2023-02-28T03:36:46.514Z,15.915976
2023-02-28T03:41:48.230Z,16.463684
2023-02-28T03:46:49.748Z,16.536064
2023-02-28T03:51:51.306Z,15.815344
2023-02-28T03:56:52.906Z,16.047058
2023-02-28T04:01:54.528Z,16.116344
2023-02-28T04:06:56.100Z,16.427494
2023-02-28T04:11:57.669Z,15.64084
2023-02-28T04:16:59.131Z,15.878456
2023-02-28T04:22:00.675Z,15.895134
2023-02-28T04:27:02.223Z,16.012538
2023-02-28T04:32:03.970Z,15.578162
2023-02-28T04:37:13.338Z,15.897264
2023-02-28T04:42:15.312Z,16.303116
2023-02-28T04:47:16.773Z,16.60474
2023-02-28T04:52:18.418Z,16.331286
2023-02-28T04:57:19.998Z,15.961258
2023-02-28T05:02:21.689Z,17.072564
2023-02-28T05:07:23.296Z,17.595942
2023-02-28T05:12:24.993Z,16.635814
2023-02-28T05:17:26.438Z,16.76733
2023-02-28T05:22:27.912Z,17.31744
2023-02-28T05:27:29.513Z,18.490312
2023-02-28T05:32:31.144Z,18.156718
2023-02-28T05:37:32.799Z,18.800512
2023-02-28T05:42:34.493Z,18.564714
2023-02-28T05:47:36.053Z,19.361478
2023-02-28T05:52:37.585Z,19.527068
2023-02-28T05:57:39.154Z,20.208532
2023-02-28T06:02:40.832Z,20.521202
2023-02-28T06:07:42.535Z,21.30167
2023-02-28T06:12:44.115Z,20.843154
2023-02-28T06:17:45.556Z,21.833516
2023-02-28T06:22:47.049Z,21.593416
2023-02-28T06:27:48.529Z,22.098096
2023-02-28T06:32:50.006Z,22.352078
2023-02-28T06:37:51.477Z,20.967112
2023-02-28T06:42:52.951Z,21.97962
2023-02-28T06:47:54.485Z,22.391742
2023-02-28T06:52:56.215Z,23.336104
2023-02-28T06:57:57.792Z,22.901538
2023-02-28T07:02:59.364Z,22.638098
2023-02-28T07:08:00.838Z,22.952492
2023-02-28T07:13:02.288Z,23.691614
2023-02-28T07:18:03.797Z,23.335616
2023-02-28T07:23:05.225Z,23.912704
2023-02-28T07:28:06.959Z,24.087738
2023-02-28T07:33:08.721Z,24.11181
2023-02-28T07:38:10.318Z,24.506808
2023-02-28T07:43:12.090Z,24.548494
2023-02-28T07:48:13.528Z,25.821676
2023-02-28T07:53:15.012Z,25.708722
2023-02-28T07:58:16.764Z,25.127848
2023-02-28T08:03:18.271Z,24.432216
2023-02-28T08:08:19.801Z,25.070856
2023-02-28T08:13:21.269Z,25.265756
2023-02-28T08:18:22.778Z,26.554788
2023-02-28T08:23:24.213Z,25.470318
2023-02-28T08:28:27.367Z,26.256894
2023-02-28T08:33:29.248Z,26.23654
2023-02-28T08:38:30.781Z,27.452404
2023-02-28T08:43:32.338Z,25.075918
2023-02-28T08:48:33.823Z,26.348462
2023-02-28T08:53:35.323Z,26.357974
2023-02-28T08:58:36.942Z,27.100124
2023-02-28T09:03:38.639Z,26.872846
2023-02-28T09:08:40.201Z,27.523672
2023-02-28T09:13:41.905Z,28.545044
2023-02-28T09:18:43.430Z,28.161906
2023-02-28T09:23:44.916Z,28.006086
2023-02-28T09:28:46.473Z,28.240474
2023-02-28T09:33:47.981Z,27.95007
2023-02-28T09:38:49.808Z,28.62562
2023-02-28T09:43:51.464Z,27.701556
2023-02-28T09:48:53.086Z,28.258372
2023-02-28T09:54:01.436Z,28.154646
2023-02-28T09:59:03.559Z,28.8315
2023-02-28T10:04:05.070Z,29.415508
2023-02-28T10:09:06.645Z,29.41483
2023-02-28T10:14:08.761Z,29.750082
2023-02-28T10:19:10.210Z,29.556294
2023-02-28T10:29:14.215Z,29.372452
2023-02-28T10:34:15.670Z,28.605524
2023-02-28T10:39:17.159Z,27.916512
2023-02-28T10:44:18.650Z,28.781644
2023-02-28T10:49:20.245Z,29.38282
2023-02-28T10:54:21.705Z,29.098372
2023-02-28T10:59:23.328Z,29.423434
2023-02-28T11:04:24.825Z,28.981158
2023-02-28T11:09:26.296Z,28.764194
2023-02-28T11:14:27.813Z,29.364948
2023-02-28T11:19:29.256Z,28.919362
2023-02-28T11:24:30.764Z,29.540634
2023-02-28T11:29:32.251Z,30.089948
2023-02-28T11:34:33.782Z,29.776556
2023-02-28T11:39:35.393Z,29.441088
2023-02-28T11:44:37.085Z,30.72339
2023-02-28T11:49:38.675Z,30.954686
2023-02-28T11:54:40.240Z,30.351936
2023-02-28T11:59:41.810Z,29.15637
2023-02-28T12:04:43.300Z,29.2473
2023-02-28T12:09:44.741Z,30.67682
2023-02-28T12:14:46.250Z,30.24665
2023-02-28T12:19:47.721Z,30.776558
2023-02-28T12:24:49.290Z,30.25285
2023-02-28T12:29:50.861Z,30.33207
2023-02-28T12:34:52.450Z,30.435362
2023-02-28T12:39:54.026Z,29.931482
2023-02-28T12:44:55.528Z,28.93414
2023-02-28T12:49:57.284Z,30.206944
2023-02-28T12:54:58.788Z,29.59072
2023-02-28T13:00:00.283Z,29.431142
2023-02-28T13:05:01.944Z,29.917586
2023-02-28T13:10:03.563Z,28.500902
2023-02-28T13:15:05.052Z,29.378192
2023-02-28T13:20:06.657Z,28.715194
2023-02-28T13:25:08.173Z,27.71921
2023-02-28T13:30:09.946Z,28.369168
2023-02-28T13:35:11.722Z,27.492056
2023-02-28T13:40:13.240Z,28.689602
2023-02-28T13:45:14.722Z,28.42011
2023-02-28T13:50:17.736Z,28.744572
2023-02-28T13:55:19.354Z,29.132324
2023-02-28T14:00:20.947Z,28.90833
2023-02-28T14:05:22.436Z,30.044502
2023-02-28T14:10:24.217Z,28.927518
2023-02-28T14:15:25.881Z,29.946068
2023-02-28T14:20:27.381Z,29.034568
2023-02-28T14:25:28.860Z,28.716076
2023-02-28T14:30:30.529Z,28.249308
2023-02-28T14:35:32.371Z,28.905658
2023-02-28T14:40:33.862Z,29.410624
2023-02-28T14:45:35.320Z,29.51104
2023-02-28T14:50:36.773Z,29.476396
2023-02-28T14:55:38.506Z,28.593136
2023-02-28T15:00:40.164Z,29.443312
2023-02-28T15:05:41.867Z,28.851392
2023-02-28T15:10:43.510Z,28.220608
2023-02-28T15:15:58.704Z,29.079566
2023-02-28T15:21:03.136Z,27.940084
2023-02-28T15:26:04.641Z,28.645894
2023-02-28T15:31:06.408Z,28.665352
2023-02-28T15:36:08.323Z,27.22704
2023-02-28T15:41:09.920Z,27.105226
2023-02-28T15:46:11.386Z,28.074748
2023-02-28T15:51:13.413Z,27.135432
2023-02-28T15:56:14.910Z,26.524772
2023-02-28T16:01:16.397Z,27.086676
2023-02-28T16:06:17.894Z,25.985828
2023-02-28T16:11:19.395Z,26.406716
2023-02-28T16:16:21.206Z,26.404952
2023-02-28T16:21:22.894Z,26.290872
2023-02-28T16:26:24.380Z,26.103476
2023-02-28T16:31:26.332Z,26.094208
2023-02-28T16:36:27.841Z,25.612894
2023-02-28T16:41:29.621Z,25.33834
2023-02-28T16:46:31.551Z,25.288472
2023-02-28T16:51:35.631Z,24.423342
2023-02-28T16:56:37.494Z,24.615392
2023-02-28T17:01:39.299Z,24.02658
2023-02-28T17:06:40.851Z,23.87916
2023-02-28T17:11:42.352Z,23.424972
2023-02-28T17:16:43.957Z,24.056148
2023-02-28T17:21:45.495Z,23.711874
2023-02-28T17:26:47.065Z,22.794338
2023-02-28T17:31:48.739Z,20.712506
2023-02-28T17:36:50.254Z,21.18987
2023-02-28T17:41:51.755Z,20.512816
2023-02-28T17:46:53.457Z,20.20191
2023-02-28T17:51:55.121Z,20.577692
2023-02-28T17:56:56.582Z,20.593338
2023-02-28T18:01:58.260Z,20.159722
2023-02-28T18:06:59.786Z,19.637334
2023-02-28T18:12:01.232Z,20.723918
2023-02-28T18:17:02.857Z,21.360806
2023-02-28T18:22:04.326Z,20.829842
2023-02-28T18:27:05.801Z,21.114532
2023-02-28T18:32:07.369Z,20.29383
2023-02-28T18:37:08.859Z,19.940112
2023-02-28T18:42:10.496Z,20.537662
2023-02-28T18:47:12.062Z,20.368164
2023-02-28T18:52:13.598Z,19.961294
2023-02-28T18:57:15.075Z,20.298688
2023-02-28T19:02:16.682Z,19.709456
2023-02-28T19:07:18.124Z,18.818166
2023-02-28T19:12:19.554Z,18.665712
2023-02-28T19:17:21.059Z,19.40543
2023-02-28T19:22:22.665Z,18.797676
2023-02-28T19:27:24.102Z,18.540804
2023-02-28T19:32:25.787Z,19.25246
2023-02-28T19:37:27.403Z,19.531668
2023-02-28T19:42:29.102Z,19.203474
2023-02-28T19:47:30.692Z,19.417982
2023-02-28T19:52:32.190Z,19.885386
2023-02-28T19:57:33.806Z,17.973216
2023-02-28T20:02:35.336Z,19.11211
2023-02-28T20:07:36.908Z,18.563058
2023-02-28T20:12:38.444Z,17.963324
2023-02-28T20:17:40.131Z,17.886968
2023-02-28T20:22:41.758Z,18.57637
2023-02-28T20:27:43.377Z,17.76894
2023-02-28T20:32:44.980Z,17.345502
2023-02-28T20:37:46.477Z,17.132854
2023-02-28T20:42:48.077Z,16.910598
2023-02-28T20:47:49.577Z,17.058628
2023-02-28T20:52:51.062Z,16.982272
2023-02-28T20:57:52.567Z,16.821174
2023-02-28T21:02:54.106Z,17.205152
2023-02-28T21:07:55.640Z,16.038672
2023-02-28T21:12:57.105Z,17.138064
2023-02-28T21:17:58.666Z,16.597494
2023-02-28T21:23:00.252Z,17.073976
2023-02-28T21:28:01.774Z,17.375342
2023-02-28T21:33:03.294Z,15.802982
2023-02-28T21:38:04.907Z,16.83222
2023-02-28T21:43:06.434Z,16.290496
2023-02-28T21:48:07.943Z,16.785866
2023-02-28T21:53:09.365Z,17.319028
2023-02-28T21:58:10.856Z,16.232948
2023-02-28T22:03:12.364Z,16.155968
2023-02-28T22:08:14.015Z,16.820564
2023-02-28T22:13:15.541Z,15.94165
2023-02-28T22:18:17.061Z,16.057642
2023-02-28T22:23:19.171Z,16.577112
2023-02-28T22:28:20.829Z,16.987836
2023-02-28T22:33:22.583Z,15.557686
2023-02-28T22:38:24.079Z,15.735108
2023-02-28T22:43:25.663Z,15.827788
2023-02-28T22:48:27.237Z,15.72257
2023-02-28T22:53:28.792Z,16.867528
2023-02-28T22:58:30.305Z,16.774916
2023-02-28T23:03:31.931Z,16.778986
2023-02-28T23:08:33.408Z,17.03347
2023-02-28T23:13:34.905Z,16.804144
2023-02-28T23:18:36.581Z,16.679426
2023-02-28T23:23:38.164Z,16.504474
2023-02-28T23:28:39.608Z,16.177068
2023-02-28T23:33:41.218Z,16.788078
2023-02-28T23:38:42.778Z,15.971054
2023-02-28T23:43:44.272Z,16.316984
2023-02-28T23:48:45.801Z,16.217234
2023-02-28T23:53:47.327Z,16.349374
2023-02-28T23:58:48.819Z,16.135056
